sensor_id;sensor_type;location;lat;lon;timestamp;P1;durP1;ratioP1;P2;durP2;ratioP2
72517;SDS011;60540;51.178;6.738;2023-04-24T00:00:15;2.03;;;1.00;;
72517;SDS011;60540;51.178;6.738;2023-04-24T00:03:01;2.13;;;1.10;;
72517;SDS011;60540;51.178;6.738;2023-04-24T00:05:28;2.78;;;1.13;;
72517;SDS011;60540;51.178;6.738;2023-04-24T00:07:54;2.25;;;0.95;;
72517;SDS011;60540;51.178;6.738;2023-04-24T00:10:20;1.48;;;0.93;;
72517;SDS011;60540;51.178;6.738;2023-04-24T00:12:46;2.42;;;1.00;;
72517;SDS011;60540;51.178;6.738;2023-04-24T00:15:12;1.75;;;1.00;;
72517;SDS011;60540;51.178;6.738;2023-04-24T00:17:38;3.67;;;1.30;;
72517;SDS011;60540;51.178;6.738;2023-04-24T00:20:04;2.28;;;1.00;;
72517;SDS011;60540;51.178;6.738;2023-04-24T00:22:32;3.90;;;1.27;;
72517;SDS011;60540;51.178;6.738;2023-04-24T00:24:58;2.30;;;1.02;;
72517;SDS011;60540;51.178;6.738;2023-04-24T00:27:24;2.80;;;1.17;;
72517;SDS011;60540;51.178;6.738;2023-04-24T00:29:50;3.15;;;1.30;;
72517;SDS011;60540;51.178;6.738;2023-04-24T00:32:16;2.53;;;1.30;;
72517;SDS011;60540;51.178;6.738;2023-04-24T00:34:43;3.67;;;1.27;;
72517;SDS011;60540;51.178;6.738;2023-04-24T00:37:08;2.85;;;1.33;;
72517;SDS011;60540;51.178;6.738;2023-04-24T00:39:34;2.30;;;1.20;;
72517;SDS011;60540;51.178;6.738;2023-04-24T00:42:00;3.50;;;1.10;;
72517;SDS011;60540;51.178;6.738;2023-04-24T00:44:27;2.83;;;1.20;;
72517;SDS011;60540;51.178;6.738;2023-04-24T00:46:53;3.58;;;1.40;;
72517;SDS011;60540;51.178;6.738;2023-04-24T00:49:22;2.22;;;1.33;;
72517;SDS011;60540;51.178;6.738;2023-04-24T00:51:48;2.33;;;1.20;;
72517;SDS011;60540;51.178;6.738;2023-04-24T00:54:16;3.05;;;1.33;;
72517;SDS011;60540;51.178;6.738;2023-04-24T00:56:43;2.70;;;1.33;;
72517;SDS011;60540;51.178;6.738;2023-04-24T00:59:09;2.60;;;1.45;;
72517;SDS011;60540;51.178;6.738;2023-04-24T01:01:36;3.15;;;1.42;;
72517;SDS011;60540;51.178;6.738;2023-04-24T01:04:02;3.70;;;1.30;;
72517;SDS011;60540;51.178;6.738;2023-04-24T01:06:28;2.83;;;1.33;;
72517;SDS011;60540;51.178;6.738;2023-04-24T01:08:56;3.67;;;1.70;;
72517;SDS011;60540;51.178;6.738;2023-04-24T01:11:22;9.20;;;2.22;;
72517;SDS011;60540;51.178;6.738;2023-04-24T01:13:48;4.28;;;2.17;;
72517;SDS011;60540;51.178;6.738;2023-04-24T01:16:14;5.70;;;2.30;;
72517;SDS011;60540;51.178;6.738;2023-04-24T01:18:43;4.65;;;2.65;;
72517;SDS011;60540;51.178;6.738;2023-04-24T01:21:09;4.15;;;2.40;;
72517;SDS011;60540;51.178;6.738;2023-04-24T01:23:39;6.45;;;2.42;;
72517;SDS011;60540;51.178;6.738;2023-04-24T01:26:05;4.07;;;2.08;;
72517;SDS011;60540;51.178;6.738;2023-04-24T01:28:31;4.57;;;2.72;;
72517;SDS011;60540;51.178;6.738;2023-04-24T01:30:57;7.82;;;3.08;;
72517;SDS011;60540;51.178;6.738;2023-04-24T01:33:22;7.78;;;3.10;;
72517;SDS011;60540;51.178;6.738;2023-04-24T01:35:48;6.75;;;3.30;;
72517;SDS011;60540;51.178;6.738;2023-04-24T01:38:14;8.50;;;3.58;;
72517;SDS011;60540;51.178;6.738;2023-04-24T01:40:40;6.07;;;3.13;;
72517;SDS011;60540;51.178;6.738;2023-04-24T01:43:06;6.70;;;3.35;;
72517;SDS011;60540;51.178;6.738;2023-04-24T01:45:32;5.95;;;3.00;;
72517;SDS011;60540;51.178;6.738;2023-04-24T01:47:58;7.10;;;3.33;;
72517;SDS011;60540;51.178;6.738;2023-04-24T01:50:24;9.05;;;3.85;;
72517;SDS011;60540;51.178;6.738;2023-04-24T01:52:49;7.72;;;3.60;;
72517;SDS011;60540;51.178;6.738;2023-04-24T01:55:15;7.97;;;3.75;;
72517;SDS011;60540;51.178;6.738;2023-04-24T01:57:41;7.35;;;3.45;;
72517;SDS011;60540;51.178;6.738;2023-04-24T02:00:07;6.72;;;3.72;;
72517;SDS011;60540;51.178;6.738;2023-04-24T02:02:33;8.05;;;4.20;;
72517;SDS011;60540;51.178;6.738;2023-04-24T02:04:59;8.23;;;3.92;;
72517;SDS011;60540;51.178;6.738;2023-04-24T02:07:24;7.82;;;3.33;;
72517;SDS011;60540;51.178;6.738;2023-04-24T02:09:50;10.38;;;4.38;;
72517;SDS011;60540;51.178;6.738;2023-04-24T02:12:16;7.30;;;3.88;;
72517;SDS011;60540;51.178;6.738;2023-04-24T02:14:43;7.80;;;3.47;;
72517;SDS011;60540;51.178;6.738;2023-04-24T02:17:09;8.80;;;4.75;;
72517;SDS011;60540;51.178;6.738;2023-04-24T02:19:35;7.05;;;4.40;;
72517;SDS011;60540;51.178;6.738;2023-04-24T02:22:00;7.93;;;4.03;;
72517;SDS011;60540;51.178;6.738;2023-04-24T02:24:26;8.38;;;4.03;;
72517;SDS011;60540;51.178;6.738;2023-04-24T02:26:52;9.77;;;4.72;;
72517;SDS011;60540;51.178;6.738;2023-04-24T02:29:18;8.07;;;4.20;;
72517;SDS011;60540;51.178;6.738;2023-04-24T02:31:43;9.32;;;4.60;;
72517;SDS011;60540;51.178;6.738;2023-04-24T02:34:09;11.05;;;4.30;;
72517;SDS011;60540;51.178;6.738;2023-04-24T02:36:35;9.10;;;5.05;;
72517;SDS011;60540;51.178;6.738;2023-04-24T02:39:01;8.77;;;4.25;;
72517;SDS011;60540;51.178;6.738;2023-04-24T02:41:27;9.32;;;4.88;;
72517;SDS011;60540;51.178;6.738;2023-04-24T02:43:57;9.73;;;4.28;;
72517;SDS011;60540;51.178;6.738;2023-04-24T02:46:23;8.38;;;4.55;;
72517;SDS011;60540;51.178;6.738;2023-04-24T02:48:49;11.95;;;5.28;;
72517;SDS011;60540;51.178;6.738;2023-04-24T02:51:15;8.30;;;4.63;;
72517;SDS011;60540;51.178;6.738;2023-04-24T02:53:40;11.13;;;4.93;;
72517;SDS011;60540;51.178;6.738;2023-04-24T02:56:06;9.75;;;4.82;;
72517;SDS011;60540;51.178;6.738;2023-04-24T02:58:32;9.95;;;4.85;;
72517;SDS011;60540;51.178;6.738;2023-04-24T03:00:57;11.85;;;4.65;;
72517;SDS011;60540;51.178;6.738;2023-04-24T03:03:23;10.70;;;5.25;;
72517;SDS011;60540;51.178;6.738;2023-04-24T03:05:49;9.18;;;5.57;;
72517;SDS011;60540;51.178;6.738;2023-04-24T03:08:15;10.07;;;4.93;;
72517;SDS011;60540;51.178;6.738;2023-04-24T03:10:41;10.48;;;5.63;;
72517;SDS011;60540;51.178;6.738;2023-04-24T03:13:07;10.10;;;5.32;;
72517;SDS011;60540;51.178;6.738;2023-04-24T03:15:32;9.43;;;4.57;;
72517;SDS011;60540;51.178;6.738;2023-04-24T03:17:58;12.02;;;5.13;;
72517;SDS011;60540;51.178;6.738;2023-04-24T03:20:25;9.18;;;4.80;;
72517;SDS011;60540;51.178;6.738;2023-04-24T03:22:51;10.63;;;4.63;;
72517;SDS011;60540;51.178;6.738;2023-04-24T03:25:17;9.93;;;4.72;;
72517;SDS011;60540;51.178;6.738;2023-04-24T03:27:43;9.32;;;4.95;;
72517;SDS011;60540;51.178;6.738;2023-04-24T03:30:09;8.88;;;4.70;;
72517;SDS011;60540;51.178;6.738;2023-04-24T03:32:35;9.65;;;4.93;;
72517;SDS011;60540;51.178;6.738;2023-04-24T03:35:00;9.48;;;4.13;;
72517;SDS011;60540;51.178;6.738;2023-04-24T03:37:26;9.57;;;4.55;;
72517;SDS011;60540;51.178;6.738;2023-04-24T03:39:52;9.00;;;4.72;;
72517;SDS011;60540;51.178;6.738;2023-04-24T03:42:18;7.65;;;4.32;;
72517;SDS011;60540;51.178;6.738;2023-04-24T03:44:43;10.70;;;5.15;;
72517;SDS011;60540;51.178;6.738;2023-04-24T03:47:09;9.25;;;4.95;;
72517;SDS011;60540;51.178;6.738;2023-04-24T03:49:35;10.60;;;5.53;;
72517;SDS011;60540;51.178;6.738;2023-04-24T03:52:01;10.18;;;5.55;;
72517;SDS011;60540;51.178;6.738;2023-04-24T03:54:26;9.75;;;4.93;;
72517;SDS011;60540;51.178;6.738;2023-04-24T03:56:52;9.38;;;4.82;;
72517;SDS011;60540;51.178;6.738;2023-04-24T03:59:18;11.07;;;5.53;;
72517;SDS011;60540;51.178;6.738;2023-04-24T04:01:44;11.60;;;5.13;;
72517;SDS011;60540;51.178;6.738;2023-04-24T04:04:10;9.75;;;4.80;;
72517;SDS011;60540;51.178;6.738;2023-04-24T04:06:36;10.00;;;4.60;;
72517;SDS011;60540;51.178;6.738;2023-04-24T04:09:02;9.80;;;5.03;;
72517;SDS011;60540;51.178;6.738;2023-04-24T04:11:28;10.57;;;5.65;;
72517;SDS011;60540;51.178;6.738;2023-04-24T04:13:54;9.23;;;4.93;;
72517;SDS011;60540;51.178;6.738;2023-04-24T04:16:20;8.68;;;4.80;;
72517;SDS011;60540;51.178;6.738;2023-04-24T04:18:46;9.80;;;4.88;;
72517;SDS011;60540;51.178;6.738;2023-04-24T04:21:12;12.57;;;5.55;;
72517;SDS011;60540;51.178;6.738;2023-04-24T04:23:38;8.02;;;4.60;;
72517;SDS011;60540;51.178;6.738;2023-04-24T04:26:05;8.88;;;4.35;;
72517;SDS011;60540;51.178;6.738;2023-04-24T04:28:31;9.38;;;5.60;;
72517;SDS011;60540;51.178;6.738;2023-04-24T04:30:57;9.30;;;5.20;;
72517;SDS011;60540;51.178;6.738;2023-04-24T04:33:23;10.43;;;4.75;;
72517;SDS011;60540;51.178;6.738;2023-04-24T04:35:50;9.63;;;4.90;;
72517;SDS011;60540;51.178;6.738;2023-04-24T04:38:17;10.93;;;5.38;;
72517;SDS011;60540;51.178;6.738;2023-04-24T04:43:10;7.50;;;4.13;;
72517;SDS011;60540;51.178;6.738;2023-04-24T04:45:36;8.23;;;4.60;;
72517;SDS011;60540;51.178;6.738;2023-04-24T04:48:04;9.10;;;5.15;;
72517;SDS011;60540;51.178;6.738;2023-04-24T04:50:32;8.88;;;4.55;;
72517;SDS011;60540;51.178;6.738;2023-04-24T04:52:58;9.38;;;4.93;;
72517;SDS011;60540;51.178;6.738;2023-04-24T04:55:24;7.47;;;4.38;;
72517;SDS011;60540;51.178;6.738;2023-04-24T04:57:51;8.38;;;4.30;;
72517;SDS011;60540;51.178;6.738;2023-04-24T05:00:17;10.40;;;4.90;;
72517;SDS011;60540;51.178;6.738;2023-04-24T05:02:43;9.57;;;3.97;;
72517;SDS011;60540;51.178;6.738;2023-04-24T05:05:09;8.43;;;4.32;;
72517;SDS011;60540;51.178;6.738;2023-04-24T05:07:34;9.02;;;4.38;;
72517;SDS011;60540;51.178;6.738;2023-04-24T05:10:00;9.73;;;4.30;;
72517;SDS011;60540;51.178;6.738;2023-04-24T05:12:26;7.57;;;3.75;;
72517;SDS011;60540;51.178;6.738;2023-04-24T05:14:52;7.20;;;3.50;;
72517;SDS011;60540;51.178;6.738;2023-04-24T05:17:18;9.80;;;5.00;;
72517;SDS011;60540;51.178;6.738;2023-04-24T05:19:44;7.75;;;4.05;;
72517;SDS011;60540;51.178;6.738;2023-04-24T05:22:10;8.13;;;4.10;;
72517;SDS011;60540;51.178;6.738;2023-04-24T05:24:38;7.97;;;3.88;;
72517;SDS011;60540;51.178;6.738;2023-04-24T05:27:03;8.77;;;3.60;;
72517;SDS011;60540;51.178;6.738;2023-04-24T05:29:32;7.88;;;3.97;;
72517;SDS011;60540;51.178;6.738;2023-04-24T05:31:58;7.50;;;4.13;;
72517;SDS011;60540;51.178;6.738;2023-04-24T05:34:24;7.35;;;3.80;;
72517;SDS011;60540;51.178;6.738;2023-04-24T05:36:50;9.00;;;4.38;;
72517;SDS011;60540;51.178;6.738;2023-04-24T05:39:16;7.63;;;4.20;;
72517;SDS011;60540;51.178;6.738;2023-04-24T05:41:42;7.90;;;3.88;;
72517;SDS011;60540;51.178;6.738;2023-04-24T05:44:08;7.15;;;3.97;;
72517;SDS011;60540;51.178;6.738;2023-04-24T05:46:34;6.80;;;3.75;;
72517;SDS011;60540;51.178;6.738;2023-04-24T05:49:00;7.72;;;4.60;;
72517;SDS011;60540;51.178;6.738;2023-04-24T05:51:26;8.48;;;4.75;;
72517;SDS011;60540;51.178;6.738;2023-04-24T05:53:52;7.85;;;4.30;;
72517;SDS011;60540;51.178;6.738;2023-04-24T05:56:18;8.38;;;4.00;;
72517;SDS011;60540;51.178;6.738;2023-04-24T05:58:44;9.13;;;4.43;;
72517;SDS011;60540;51.178;6.738;2023-04-24T06:01:10;7.35;;;3.72;;
72517;SDS011;60540;51.178;6.738;2023-04-24T06:03:37;6.50;;;3.83;;
72517;SDS011;60540;51.178;6.738;2023-04-24T06:06:05;8.18;;;4.55;;
72517;SDS011;60540;51.178;6.738;2023-04-24T06:08:31;7.95;;;4.07;;
72517;SDS011;60540;51.178;6.738;2023-04-24T06:10:58;7.45;;;4.10;;
72517;SDS011;60540;51.178;6.738;2023-04-24T06:13:24;7.07;;;3.33;;
72517;SDS011;60540;51.178;6.738;2023-04-24T06:15:49;8.85;;;4.22;;
72517;SDS011;60540;51.178;6.738;2023-04-24T06:18:15;6.35;;;3.55;;
72517;SDS011;60540;51.178;6.738;2023-04-24T06:20:41;6.57;;;3.83;;
72517;SDS011;60540;51.178;6.738;2023-04-24T06:23:07;7.95;;;3.80;;
72517;SDS011;60540;51.178;6.738;2023-04-24T06:25:33;6.78;;;3.40;;
72517;SDS011;60540;51.178;6.738;2023-04-24T06:27:59;6.25;;;3.53;;
72517;SDS011;60540;51.178;6.738;2023-04-24T06:30:24;7.03;;;3.88;;
72517;SDS011;60540;51.178;6.738;2023-04-24T06:32:50;6.75;;;3.10;;
72517;SDS011;60540;51.178;6.738;2023-04-24T06:35:16;7.20;;;2.90;;
72517;SDS011;60540;51.178;6.738;2023-04-24T06:37:42;6.10;;;3.35;;
72517;SDS011;60540;51.178;6.738;2023-04-24T06:40:08;8.30;;;3.20;;
72517;SDS011;60540;51.178;6.738;2023-04-24T06:42:34;7.55;;;3.22;;
72517;SDS011;60540;51.178;6.738;2023-04-24T06:45:00;5.82;;;3.47;;
72517;SDS011;60540;51.178;6.738;2023-04-24T06:47:26;7.82;;;3.50;;
72517;SDS011;60540;51.178;6.738;2023-04-24T06:49:52;5.82;;;3.28;;
72517;SDS011;60540;51.178;6.738;2023-04-24T06:52:19;6.90;;;3.67;;
72517;SDS011;60540;51.178;6.738;2023-04-24T06:54:44;6.30;;;3.00;;
72517;SDS011;60540;51.178;6.738;2023-04-24T06:57:10;5.78;;;3.10;;
72517;SDS011;60540;51.178;6.738;2023-04-24T06:59:36;6.40;;;2.72;;
72517;SDS011;60540;51.178;6.738;2023-04-24T07:02:02;5.43;;;2.78;;
72517;SDS011;60540;51.178;6.738;2023-04-24T07:04:28;8.35;;;2.83;;
72517;SDS011;60540;51.178;6.738;2023-04-24T07:06:55;4.90;;;2.70;;
72517;SDS011;60540;51.178;6.738;2023-04-24T07:09:21;4.90;;;2.58;;
72517;SDS011;60540;51.178;6.738;2023-04-24T07:11:49;5.57;;;2.38;;
72517;SDS011;60540;51.178;6.738;2023-04-24T07:14:15;4.07;;;1.83;;
72517;SDS011;60540;51.178;6.738;2023-04-24T07:16:41;4.15;;;1.83;;
72517;SDS011;60540;51.178;6.738;2023-04-24T07:19:07;8.00;;;2.08;;
72517;SDS011;60540;51.178;6.738;2023-04-24T07:21:33;4.05;;;2.00;;
72517;SDS011;60540;51.178;6.738;2023-04-24T07:23:59;4.97;;;2.05;;
72517;SDS011;60540;51.178;6.738;2023-04-24T07:26:25;3.58;;;1.85;;
72517;SDS011;60540;51.178;6.738;2023-04-24T07:31:18;3.97;;;1.30;;
72517;SDS011;60540;51.178;6.738;2023-04-24T07:33:44;2.22;;;1.13;;
72517;SDS011;60540;51.178;6.738;2023-04-24T07:36:10;1.85;;;1.23;;
72517;SDS011;60540;51.178;6.738;2023-04-24T07:38:41;4.68;;;0.80;;
72517;SDS011;60540;51.178;6.738;2023-04-24T07:43:33;0.82;;;0.40;;
72517;SDS011;60540;51.178;6.738;2023-04-24T07:45:59;0.82;;;0.43;;
72517;SDS011;60540;51.178;6.738;2023-04-24T07:48:24;0.98;;;0.70;;
72517;SDS011;60540;51.178;6.738;2023-04-24T07:50:52;2.20;;;0.52;;
72517;SDS011;60540;51.178;6.738;2023-04-24T07:53:18;1.35;;;0.95;;
72517;SDS011;60540;51.178;6.738;2023-04-24T07:55:43;1.92;;;0.60;;
72517;SDS011;60540;51.178;6.738;2023-04-24T07:58:09;1.42;;;0.60;;
72517;SDS011;60540;51.178;6.738;2023-04-24T08:00:35;1.70;;;0.47;;
72517;SDS011;60540;51.178;6.738;2023-04-24T08:03:01;1.67;;;0.45;;
72517;SDS011;60540;51.178;6.738;2023-04-24T08:05:27;0.45;;;0.32;;
72517;SDS011;60540;51.178;6.738;2023-04-24T08:07:53;1.05;;;0.68;;
72517;SDS011;60540;51.178;6.738;2023-04-24T08:10:23;1.77;;;0.82;;
72517;SDS011;60540;51.178;6.738;2023-04-24T08:12:49;1.00;;;0.50;;
72517;SDS011;60540;51.178;6.738;2023-04-24T08:15:15;2.13;;;1.10;;
72517;SDS011;60540;51.178;6.738;2023-04-24T08:17:40;2.58;;;1.10;;
72517;SDS011;60540;51.178;6.738;2023-04-24T08:20:06;3.17;;;1.35;;
72517;SDS011;60540;51.178;6.738;2023-04-24T08:22:38;3.95;;;1.70;;
72517;SDS011;60540;51.178;6.738;2023-04-24T08:25:08;4.22;;;1.85;;
72517;SDS011;60540;51.178;6.738;2023-04-24T08:27:34;5.78;;;2.38;;
72517;SDS011;60540;51.178;6.738;2023-04-24T08:30:02;5.50;;;2.60;;
72517;SDS011;60540;51.178;6.738;2023-04-24T08:32:28;4.90;;;2.17;;
72517;SDS011;60540;51.178;6.738;2023-04-24T08:34:55;4.97;;;2.40;;
72517;SDS011;60540;51.178;6.738;2023-04-24T08:37:22;5.20;;;3.03;;
72517;SDS011;60540;51.178;6.738;2023-04-24T08:39:49;5.50;;;2.13;;
72517;SDS011;60540;51.178;6.738;2023-04-24T08:42:15;4.65;;;1.92;;
72517;SDS011;60540;51.178;6.738;2023-04-24T08:44:41;5.57;;;2.30;;
72517;SDS011;60540;51.178;6.738;2023-04-24T08:47:07;5.68;;;2.03;;
72517;SDS011;60540;51.178;6.738;2023-04-24T08:49:33;4.80;;;2.13;;
72517;SDS011;60540;51.178;6.738;2023-04-24T08:51:59;6.63;;;1.88;;
72517;SDS011;60540;51.178;6.738;2023-04-24T08:54:25;4.97;;;2.25;;
72517;SDS011;60540;51.178;6.738;2023-04-24T08:56:51;4.82;;;1.70;;
72517;SDS011;60540;51.178;6.738;2023-04-24T09:01:45;5.15;;;2.33;;
72517;SDS011;60540;51.178;6.738;2023-04-24T09:04:11;4.47;;;1.85;;
72517;SDS011;60540;51.178;6.738;2023-04-24T09:06:39;6.10;;;1.77;;
72517;SDS011;60540;51.178;6.738;2023-04-24T09:09:05;5.13;;;2.22;;
72517;SDS011;60540;51.178;6.738;2023-04-24T09:11:31;4.25;;;2.05;;
72517;SDS011;60540;51.178;6.738;2023-04-24T09:13:58;4.80;;;2.10;;
72517;SDS011;60540;51.178;6.738;2023-04-24T09:16:24;6.68;;;2.67;;
72517;SDS011;60540;51.178;6.738;2023-04-24T09:18:51;6.32;;;2.55;;
72517;SDS011;60540;51.178;6.738;2023-04-24T09:21:17;5.72;;;3.05;;
72517;SDS011;60540;51.178;6.738;2023-04-24T09:23:43;7.18;;;3.05;;
72517;SDS011;60540;51.178;6.738;2023-04-24T09:26:09;5.40;;;3.33;;
72517;SDS011;60540;51.178;6.738;2023-04-24T09:28:36;7.88;;;3.65;;
72517;SDS011;60540;51.178;6.738;2023-04-24T09:33:36;6.40;;;3.40;;
72517;SDS011;60540;51.178;6.738;2023-04-24T09:36:02;6.03;;;3.10;;
72517;SDS011;60540;51.178;6.738;2023-04-24T09:38:32;7.00;;;3.55;;
72517;SDS011;60540;51.178;6.738;2023-04-24T09:41:05;7.00;;;3.13;;
72517;SDS011;60540;51.178;6.738;2023-04-24T09:43:32;5.75;;;2.95;;
72517;SDS011;60540;51.178;6.738;2023-04-24T09:45:59;7.13;;;3.70;;
72517;SDS011;60540;51.178;6.738;2023-04-24T09:48:34;11.70;;;4.55;;
72517;SDS011;60540;51.178;6.738;2023-04-24T09:51:01;12.15;;;4.65;;
72517;SDS011;60540;51.178;6.738;2023-04-24T09:53:29;11.13;;;4.70;;
72517;SDS011;60540;51.178;6.738;2023-04-24T09:55:55;10.07;;;4.20;;
72517;SDS011;60540;51.178;6.738;2023-04-24T09:58:24;13.48;;;4.35;;
72517;SDS011;60540;51.178;6.738;2023-04-24T10:00:54;8.27;;;4.22;;
72517;SDS011;60540;51.178;6.738;2023-04-24T10:03:23;12.10;;;4.28;;
72517;SDS011;60540;51.178;6.738;2023-04-24T10:05:51;9.30;;;4.20;;
72517;SDS011;60540;51.178;6.738;2023-04-24T10:08:17;10.32;;;4.05;;
72517;SDS011;60540;51.178;6.738;2023-04-24T10:10:44;10.82;;;4.88;;
72517;SDS011;60540;51.178;6.738;2023-04-24T10:13:11;10.40;;;4.90;;
72517;SDS011;60540;51.178;6.738;2023-04-24T10:15:38;10.63;;;4.68;;
72517;SDS011;60540;51.178;6.738;2023-04-24T10:18:05;9.35;;;4.35;;
72517;SDS011;60540;51.178;6.738;2023-04-24T10:22:57;10.23;;;4.60;;
72517;SDS011;60540;51.178;6.738;2023-04-24T10:25:25;9.75;;;4.53;;
72517;SDS011;60540;51.178;6.738;2023-04-24T10:27:54;10.45;;;4.50;;
72517;SDS011;60540;51.178;6.738;2023-04-24T10:30:28;10.55;;;4.40;;
72517;SDS011;60540;51.178;6.738;2023-04-24T10:32:55;11.27;;;4.80;;
72517;SDS011;60540;51.178;6.738;2023-04-24T10:35:21;12.13;;;5.05;;
72517;SDS011;60540;51.178;6.738;2023-04-24T10:37:50;8.90;;;4.07;;
72517;SDS011;60540;51.178;6.738;2023-04-24T10:40:25;9.25;;;4.50;;
72517;SDS011;60540;51.178;6.738;2023-04-24T10:42:52;8.13;;;3.78;;
72517;SDS011;60540;51.178;6.738;2023-04-24T10:45:21;9.30;;;3.88;;
72517;SDS011;60540;51.178;6.738;2023-04-24T10:47:56;13.60;;;4.00;;
72517;SDS011;60540;51.178;6.738;2023-04-24T10:50:27;9.60;;;3.90;;
72517;SDS011;60540;51.178;6.738;2023-04-24T10:53:04;9.57;;;4.68;;
72517;SDS011;60540;51.178;6.738;2023-04-24T10:55:47;9.93;;;4.68;;
72517;SDS011;60540;51.178;6.738;2023-04-24T10:58:15;9.40;;;3.50;;
72517;SDS011;60540;51.178;6.738;2023-04-24T11:00:42;8.30;;;3.38;;
72517;SDS011;60540;51.178;6.738;2023-04-24T11:03:23;8.57;;;3.40;;
72517;SDS011;60540;51.178;6.738;2023-04-24T11:05:56;7.63;;;3.42;;
72517;SDS011;60540;51.178;6.738;2023-04-24T11:08:29;7.78;;;3.05;;
72517;SDS011;60540;51.178;6.738;2023-04-24T11:11:00;10.77;;;3.22;;
72517;SDS011;60540;51.178;6.738;2023-04-24T11:16:25;7.40;;;2.75;;
72517;SDS011;60540;51.178;6.738;2023-04-24T11:19:01;7.20;;;2.70;;
72517;SDS011;60540;51.178;6.738;2023-04-24T11:21:41;8.73;;;3.22;;
72517;SDS011;60540;51.178;6.738;2023-04-24T11:26:57;5.30;;;2.25;;
72517;SDS011;60540;51.178;6.738;2023-04-24T11:32:19;9.32;;;2.88;;
72517;SDS011;60540;51.178;6.738;2023-04-24T11:34:49;6.18;;;2.35;;
72517;SDS011;60540;51.178;6.738;2023-04-24T11:37:16;10.40;;;2.78;;
72517;SDS011;60540;51.178;6.738;2023-04-24T11:39:43;7.28;;;2.83;;
72517;SDS011;60540;51.178;6.738;2023-04-24T11:42:08;8.93;;;3.17;;
72517;SDS011;60540;51.178;6.738;2023-04-24T11:44:35;9.82;;;2.78;;
72517;SDS011;60540;51.178;6.738;2023-04-24T11:47:05;4.72;;;2.22;;
72517;SDS011;60540;51.178;6.738;2023-04-24T11:49:32;9.60;;;2.88;;
72517;SDS011;60540;51.178;6.738;2023-04-24T11:51:59;6.25;;;3.15;;
72517;SDS011;60540;51.178;6.738;2023-04-24T11:54:26;7.13;;;2.60;;
72517;SDS011;60540;51.178;6.738;2023-04-24T11:56:52;6.75;;;2.33;;
72517;SDS011;60540;51.178;6.738;2023-04-24T11:59:18;10.20;;;2.33;;
72517;SDS011;60540;51.178;6.738;2023-04-24T12:01:44;7.93;;;2.53;;
72517;SDS011;60540;51.178;6.738;2023-04-24T12:04:11;9.40;;;2.67;;
72517;SDS011;60540;51.178;6.738;2023-04-24T12:06:36;9.18;;;2.88;;
72517;SDS011;60540;51.178;6.738;2023-04-24T12:09:02;9.57;;;2.20;;
72517;SDS011;60540;51.178;6.738;2023-04-24T12:11:28;5.57;;;2.28;;
72517;SDS011;60540;51.178;6.738;2023-04-24T12:13:54;6.75;;;2.08;;
72517;SDS011;60540;51.178;6.738;2023-04-24T12:16:19;5.70;;;1.90;;
72517;SDS011;60540;51.178;6.738;2023-04-24T12:18:45;4.75;;;1.70;;
72517;SDS011;60540;51.178;6.738;2023-04-24T12:21:29;6.13;;;2.15;;
72517;SDS011;60540;51.178;6.738;2023-04-24T12:23:57;4.15;;;1.75;;
72517;SDS011;60540;51.178;6.738;2023-04-24T12:26:23;6.93;;;2.42;;
72517;SDS011;60540;51.178;6.738;2023-04-24T12:28:49;4.22;;;1.52;;
72517;SDS011;60540;51.178;6.738;2023-04-24T12:31:15;5.38;;;1.60;;
72517;SDS011;60540;51.178;6.738;2023-04-24T12:33:42;4.63;;;1.55;;
72517;SDS011;60540;51.178;6.738;2023-04-24T12:36:11;3.67;;;1.23;;
72517;SDS011;60540;51.178;6.738;2023-04-24T12:38:38;4.35;;;1.73;;
72517;SDS011;60540;51.178;6.738;2023-04-24T12:41:07;4.88;;;1.63;;
72517;SDS011;60540;51.178;6.738;2023-04-24T12:43:34;4.28;;;1.48;;
72517;SDS011;60540;51.178;6.738;2023-04-24T12:46:00;4.57;;;1.40;;
72517;SDS011;60540;51.178;6.738;2023-04-24T12:48:26;4.63;;;1.40;;
72517;SDS011;60540;51.178;6.738;2023-04-24T12:50:52;4.85;;;1.92;;
72517;SDS011;60540;51.178;6.738;2023-04-24T12:53:18;4.75;;;1.40;;
72517;SDS011;60540;51.178;6.738;2023-04-24T12:55:44;3.17;;;1.42;;
72517;SDS011;60540;51.178;6.738;2023-04-24T12:58:10;2.80;;;1.20;;
72517;SDS011;60540;51.178;6.738;2023-04-24T13:00:36;4.18;;;1.50;;
72517;SDS011;60540;51.178;6.738;2023-04-24T13:03:02;2.67;;;1.20;;
72517;SDS011;60540;51.178;6.738;2023-04-24T13:05:28;3.95;;;1.42;;
72517;SDS011;60540;51.178;6.738;2023-04-24T13:07:54;4.50;;;1.50;;
72517;SDS011;60540;51.178;6.738;2023-04-24T13:10:20;3.92;;;1.52;;
72517;SDS011;60540;51.178;6.738;2023-04-24T13:12:46;3.03;;;1.52;;
72517;SDS011;60540;51.178;6.738;2023-04-24T13:15:11;2.40;;;1.20;;
72517;SDS011;60540;51.178;6.738;2023-04-24T13:17:37;4.05;;;1.70;;
72517;SDS011;60540;51.178;6.738;2023-04-24T13:20:03;4.30;;;1.40;;
72517;SDS011;60540;51.178;6.738;2023-04-24T13:22:30;3.20;;;1.52;;
72517;SDS011;60540;51.178;6.738;2023-04-24T13:24:55;3.05;;;1.35;;
72517;SDS011;60540;51.178;6.738;2023-04-24T13:27:21;2.50;;;1.38;;
72517;SDS011;60540;51.178;6.738;2023-04-24T13:29:47;5.90;;;1.77;;
72517;SDS011;60540;51.178;6.738;2023-04-24T13:32:13;5.82;;;1.85;;
72517;SDS011;60540;51.178;6.738;2023-04-24T13:34:38;3.38;;;1.30;;
72517;SDS011;60540;51.178;6.738;2023-04-24T13:37:04;3.17;;;1.52;;
72517;SDS011;60540;51.178;6.738;2023-04-24T13:39:30;5.32;;;2.15;;
72517;SDS011;60540;51.178;6.738;2023-04-24T13:41:56;4.50;;;1.40;;
72517;SDS011;60540;51.178;6.738;2023-04-24T13:44:23;4.78;;;1.60;;
72517;SDS011;60540;51.178;6.738;2023-04-24T13:46:50;2.55;;;1.35;;
72517;SDS011;60540;51.178;6.738;2023-04-24T13:49:17;3.15;;;1.50;;
72517;SDS011;60540;51.178;6.738;2023-04-24T13:51:43;5.10;;;1.35;;
72517;SDS011;60540;51.178;6.738;2023-04-24T13:54:09;5.20;;;2.17;;
72517;SDS011;60540;51.178;6.738;2023-04-24T13:56:34;4.50;;;1.70;;
72517;SDS011;60540;51.178;6.738;2023-04-24T13:59:00;4.32;;;1.38;;
72517;SDS011;60540;51.178;6.738;2023-04-24T14:01:26;3.33;;;1.52;;
72517;SDS011;60540;51.178;6.738;2023-04-24T14:03:52;3.50;;;1.40;;
72517;SDS011;60540;51.178;6.738;2023-04-24T14:06:19;6.65;;;1.50;;
72517;SDS011;60540;51.178;6.738;2023-04-24T14:08:45;2.72;;;1.50;;
72517;SDS011;60540;51.178;6.738;2023-04-24T14:11:12;3.00;;;1.30;;
72517;SDS011;60540;51.178;6.738;2023-04-24T14:13:37;4.70;;;2.38;;
72517;SDS011;60540;51.178;6.738;2023-04-24T14:16:04;3.28;;;1.50;;
72517;SDS011;60540;51.178;6.738;2023-04-24T14:18:30;3.83;;;1.35;;
72517;SDS011;60540;51.178;6.738;2023-04-24T14:20:56;4.13;;;1.60;;
72517;SDS011;60540;51.178;6.738;2023-04-24T14:23:21;3.78;;;1.42;;
72517;SDS011;60540;51.178;6.738;2023-04-24T14:25:47;2.97;;;1.30;;
72517;SDS011;60540;51.178;6.738;2023-04-24T14:28:16;2.80;;;1.23;;
72517;SDS011;60540;51.178;6.738;2023-04-24T14:30:43;3.00;;;1.23;;
72517;SDS011;60540;51.178;6.738;2023-04-24T14:33:09;2.78;;;1.20;;
72517;SDS011;60540;51.178;6.738;2023-04-24T14:35:35;2.28;;;1.10;;
72517;SDS011;60540;51.178;6.738;2023-04-24T14:38:01;3.60;;;1.20;;
72517;SDS011;60540;51.178;6.738;2023-04-24T14:40:27;4.25;;;1.40;;
72517;SDS011;60540;51.178;6.738;2023-04-24T14:42:53;2.75;;;1.25;;
72517;SDS011;60540;51.178;6.738;2023-04-24T14:45:19;2.85;;;1.10;;
72517;SDS011;60540;51.178;6.738;2023-04-24T14:47:44;2.35;;;1.10;;
72517;SDS011;60540;51.178;6.738;2023-04-24T14:50:10;2.58;;;1.25;;
72517;SDS011;60540;51.178;6.738;2023-04-24T14:52:37;5.10;;;1.20;;
72517;SDS011;60540;51.178;6.738;2023-04-24T14:55:04;3.88;;;1.10;;
72517;SDS011;60540;51.178;6.738;2023-04-24T14:57:30;2.58;;;1.10;;
72517;SDS011;60540;51.178;6.738;2023-04-24T14:59:56;2.97;;;1.30;;
72517;SDS011;60540;51.178;6.738;2023-04-24T15:02:21;2.55;;;1.10;;
72517;SDS011;60540;51.178;6.738;2023-04-24T15:04:47;4.00;;;1.45;;